Time;durP1;ratioP1;P1;durP2;ratioP2;P2;SDS_P1;SDS_P2;PMS_P1;PMS_P2;Temp;Humidity;BMP_temperature;BMP_pressure;BME280_temperature;BME280_humidity;BME280_pressure;Samples;Min_cycle;Max_cycle;Signal;HPM_P1;HPM_P2
2022/04/21 00:00:11;;;;;;;;;;;;;;;;;;5052772;28;19909;-48
2022/04/21 00:02:37;;;;;;;;;;;;;;;;;;5051169;28;19932;-49
2022/04/21 00:05:03;;;;;;;;;;;;;;;;;;5052986;28;19954;-49
2022/04/21 00:07:29;;;;;;;;;;;;;;;;;;5052691;28;20004;-49
2022/04/21 00:09:55;;;;;;;;;;;20.80;86.80;;;;;;5052800;28;19992;-48
2022/04/21 00:12:21;;;;;;;;;;;;;;;;;;5052513;28;20015;-48
2022/04/21 00:14:46;;;;;;;;;;;20.80;87.80;;;;;;5052536;28;19935;-49
2022/04/21 00:17:12;;;;;;;;;;;20.80;85.20;;;;;;5052517;28;19916;-48
2022/04/21 00:19:37;;;;;;;;;;;20.80;84.60;;;;;;5052770;28;19909;-49
2022/04/21 00:24:48;;;;;;;;;;;;;;;;;;5052529;28;19916;-48
2022/04/21 00:27:13;;;;;;;;;;;20.80;87.90;;;;;;5052423;28;20283;-49
2022/04/21 00:29:39;;;;;;;;;;;;;;;;;;5052427;28;19913;-48
2022/04/21 00:32:05;;;;;;;;;;;;;;;;;;5052298;28;19916;-48
2022/04/21 00:34:31;;;;;;;;;;;;;;;;;;5052368;28;19962;-49
2022/04/21 00:36:57;;;;;;;;;;;;;;;;;;5052327;28;19912;-49
2022/04/21 00:39:23;;;;;;;;;;;;;;;;;;5053951;28;19909;-48
2022/04/21 00:41:48;;;;;;;;;;;20.70;88.00;;;;;;5056349;28;20003;-48
2022/04/21 00:44:13;;;;;;;;;;;20.60;88.00;;;;;;5056501;28;19912;-50
2022/04/21 00:46:40;;;;;;;;;;;20.60;88.00;;;;;;5056652;28;20433;-49
2022/04/21 00:49:06;;;;;;;;;;;20.60;88.00;;;;;;5056244;28;19908;-50
2022/04/21 00:51:32;;;;;;;;;;;;;;;;;;5056111;28;19924;-49
2022/04/21 00:53:59;;;;;;;;;;;20.60;87.00;;;;;;5056395;28;19936;-49
2022/04/21 00:56:25;;;;;;;;;;;20.60;88.00;;;;;;5056122;28;19916;-49
2022/04/21 00:58:50;;;;;;;;;;;;;;;;;;5056327;28;19909;-49
2022/04/21 01:04:01;;;;;;;;;;;;;;;;;;5063018;28;19927;-49
2022/04/21 01:06:27;;;;;;;;;;;;;;;;;;5055951;28;20302;-49
2022/04/21 01:08:52;;;;;;;;;;;;;;;;;;5056197;28;20000;-50
2022/04/21 01:11:18;;;;;;;;;;;;;;;;;;5055805;28;20198;-50
2022/04/21 01:13:44;;;;;;;;;;;20.40;88.10;;;;;;5055827;28;19909;-53
2022/04/21 01:16:10;;;;;;;;;;;;;;;;;;5055807;28;19932;-49
2022/04/21 01:18:36;;;;;;;;;;;20.50;88.20;;;;;;5055827;28;20375;-49
2022/04/21 01:21:02;;;;;;;;;;;;;;;;;;5056059;28;19909;-49
2022/04/21 01:23:27;;;;;;;;;;;20.40;88.50;;;;;;5055617;28;20015;-50
2022/04/21 01:25:53;;;;;;;;;;;;;;;;;;5055895;28;19909;-50
2022/04/21 01:28:19;;;;;;;;;;;;;;;;;;5055475;28;19962;-50
2022/04/21 01:30:44;;;;;;;;;;;20.40;88.30;;;;;;5055422;28;19917;-50
2022/04/21 01:33:10;;;;;;;;;;;20.50;88.50;;;;;;5055449;28;19909;-49
2022/04/21 01:35:36;;;;;;;;;;;20.40;88.20;;;;;;5055880;28;20267;-50
2022/04/21 01:43:30;;;;;;;;;;;20.30;88.40;;;;;;5055317;28;20286;-50
2022/04/21 01:45:55;;;;;;;;;;;20.40;87.80;;;;;;5055229;28;19909;-49
2022/04/21 01:48:21;;;;;;;;;;;;;;;;;;5055146;28;19916;-50
2022/04/21 01:50:47;;;;;;;;;;;;;;;;;;5054796;28;19924;-49
2022/04/21 01:53:13;;;;;;;;;;;;;;;;;;5055045;28;19909;-49
2022/04/21 01:55:39;;;;;;;;;;;;;;;;;;5055318;28;19955;-48
2022/04/21 01:58:05;;;;;;;;;;;;;;;;;;5055108;28;20050;-48
2022/04/21 02:00:30;;;;;;;;;;;20.30;87.70;;;;;;5054947;28;20399;-50
2022/04/21 02:02:56;;;;;;;;;;;20.30;88.70;;;;;;5054788;28;19921;-49
2022/04/21 02:05:21;;;;;;;;;;;20.30;88.40;;;;;;5054811;28;20367;-48
2022/04/21 02:07:47;;;;;;;;;;;;;;;;;;5055076;28;19917;-50
2022/04/21 02:10:13;;;;;;;;;;;;;;;;;;5054756;28;19909;-49
2022/04/21 02:12:39;;;;;;;;;;;;;;;;;;5054899;28;19986;-49
2022/04/21 02:15:06;;;;;;;;;;;;;;;;;;5054709;28;19909;-49
2022/04/21 02:17:33;;;;;;;;;;;20.30;88.60;;;;;;5054667;28;20299;-49
2022/04/21 02:19:59;;;;;;;;;;;20.20;88.80;;;;;;5054628;28;20392;-50
2022/04/21 02:22:25;;;;;;;;;;;;;;;;;;5054435;28;20311;-48
2022/04/21 02:24:50;;;;;;;;;;;20.30;88.80;;;;;;5055016;28;19912;-49
2022/04/21 02:27:16;;;;;;;;;;;;;;;;;;5054457;28;19968;-48
2022/04/21 02:29:42;;;;;;;;;;;;;;;;;;5054402;28;19920;-49
2022/04/21 02:32:08;;;;;;;;;;;;;;;;;;5054278;28;19917;-49
2022/04/21 02:34:34;;;;;;;;;;;;;;;;;;5054304;28;19941;-49
2022/04/21 02:37:00;;;;;;;;;;;20.30;88.40;;;;;;5054268;28;19909;-49
2022/04/21 02:39:25;;;;;;;;;;;20.20;88.50;;;;;;5054215;28;19919;-50
2022/04/21 02:41:51;;;;;;;;;;;;;;;;;;5054184;28;19909;-49
2022/04/21 02:44:17;;;;;;;;;;;;;;;;;;5054098;28;20337;-49
2022/04/21 02:46:43;;;;;;;;;;;;;;;;;;5054032;28;19909;-49
2022/04/21 02:49:09;;;;;;;;;;;;;;;;;;5054015;28;19954;-50
2022/04/21 02:51:34;;;;;;;;;;;20.20;88.50;;;;;;5053871;28;19923;-49
2022/04/21 02:59:29;;;;;;;;;;;;;;;;;;5054115;28;20046;-49
2022/04/21 03:01:54;;;;;;;;;;;;;;;;;;5052886;28;19908;-49
2022/04/21 03:04:20;;;;;;;;;;;;;;;;;;5053772;28;19990;-48
2022/04/21 03:06:46;;;;;;;;;;;20.10;88.80;;;;;;5053652;28;19935;-48
2022/04/21 03:09:12;;;;;;;;;;;;;;;;;;5053676;28;19909;-50
2022/04/21 03:11:37;;;;;;;;;;;20.00;88.60;;;;;;5053590;28;20037;-48
2022/04/21 03:14:03;;;;;;;;;;;;;;;;;;5053812;28;19915;-49
2022/04/21 03:16:29;;;;;;;;;;;;;;;;;;5053378;28;19916;-48
2022/04/21 03:18:55;;;;;;;;;;;;;;;;;;5053444;28;20283;-49
2022/04/21 03:24:21;;;;;;;;;;;;;;;;;;5053485;28;20008;-49
2022/04/21 03:26:46;;;;;;;;;;;20.00;89.00;;;;;;5053304;28;19913;-48
2022/04/21 03:29:12;;;;;;;;;;;;;;;;;;5053316;28;19931;-49
2022/04/21 03:31:38;;;;;;;;;;;;;;;;;;5053092;28;19917;-49
2022/04/21 03:34:05;;;;;;;;;;;;;;;;;;5053462;28;19912;-50
2022/04/21 03:36:31;;;;;;;;;;;;;;;;;;5053150;28;20346;-49
2022/04/21 03:38:57;;;;;;;;;;;;;;;;;;5053117;28;20283;-49
2022/04/21 03:41:23;;;;;;;;;;;;;;;;;;5053015;28;19915;-49
2022/04/21 03:43:49;;;;;;;;;;;;;;;;;;5053194;28;19909;-49
2022/04/21 03:46:15;;;;;;;;;;;;;;;;;;5052949;28;20007;-49
2022/04/21 03:48:40;;;;;;;;;;;19.90;89.00;;;;;;5052920;28;19909;-50
2022/04/21 03:51:06;;;;;;;;;;;19.90;87.00;;;;;;5052799;28;19916;-50
2022/04/21 03:53:31;;;;;;;;;;;19.90;88.80;;;;;;5052899;28;19913;-49
2022/04/21 03:55:57;;;;;;;;;;;;;;;;;;5052791;28;19912;-49
2022/04/21 03:58:23;;;;;;;;;;;;;;;;;;5052775;28;19909;-48
2022/04/21 04:00:49;;;;;;;;;;;;;;;;;;5052694;28;20454;-51
2022/04/21 04:03:14;;;;;;;;;;;;;;;;;;5052522;28;19921;-49
2022/04/21 04:05:40;;;;;;;;;;;;;;;;;;5052722;28;19952;-50
2022/04/21 04:10:53;;;;;;;;;;;;;;;;;;5059524;28;19923;-49
2022/04/21 04:13:19;;;;;;;;;;;;;;;;;;5052598;28;19916;-49
2022/04/21 04:15:49;;;;;;;;;;;;;;;;;;5052545;28;19909;-49
2022/04/21 04:18:15;;;;;;;;;;;;;;;;;;5052493;28;20319;-49
2022/04/21 04:20:41;;;;;;;;;;;;;;;;;;5052782;28;19908;-48
2022/04/21 04:23:07;;;;;;;;;;;;;;;;;;5052676;28;19967;-49
2022/04/21 04:25:33;;;;;;;;;;;;;;;;;;5052774;28;19909;-49
2022/04/21 04:27:59;;;;;;;;;;;;;;;;;;5052388;28;19908;-49
2022/04/21 04:30:25;;;;;;;;;;;;;;;;;;5052335;28;19963;-49
2022/04/21 04:32:50;;;;;;;;;;;19.80;88.90;;;;;;5052678;28;20470;-52
2022/04/21 04:35:15;;;;;;;;;;;19.80;89.20;;;;;;5052412;28;19912;-48
2022/04/21 04:37:41;;;;;;;;;;;;;;;;;;5052304;28;19909;-49
2022/04/21 04:40:08;;;;;;;;;;;;;;;;;;5052235;28;19913;-50
2022/04/21 04:42:33;;;;;;;;;;;19.90;89.30;;;;;;5052468;28;19940;-49
2022/04/21 04:47:43;;;;;;;;;;;19.70;85.40;;;;;;5052634;28;19969;-49
2022/04/21 04:50:09;;;;;;;;;;;;;;;;;;5052486;28;20359;-51
2022/04/21 04:52:34;;;;;;;;;;;;;;;;;;5052120;28;20264;-49
2022/04/21 04:55:00;;;;;;;;;;;;;;;;;;5052020;28;19909;-48
2022/04/21 04:57:26;;;;;;;;;;;;;;;;;;5052000;28;19909;-50
2022/04/21 04:59:52;;;;;;;;;;;;;;;;;;5052022;28;20389;-49
2022/04/21 05:02:20;;;;;;;;;;;19.80;89.20;;;;;;5051708;28;20011;-49
2022/04/21 05:04:46;;;;;;;;;;;19.80;89.40;;;;;;5052270;28;19909;-49
2022/04/21 05:07:12;;;;;;;;;;;;;;;;;;5051930;28;20003;-49
2022/04/21 05:09:38;;;;;;;;;;;19.70;89.20;;;;;;5051990;28;19954;-49
2022/04/21 05:12:04;;;;;;;;;;;;;;;;;;5049785;28;20104;-48
2022/04/21 05:14:30;;;;;;;;;;;19.70;89.20;;;;;;5051870;28;19909;-48
2022/04/21 05:16:56;;;;;;;;;;;;;;;;;;5052017;28;19913;-48
2022/04/21 05:19:21;;;;;;;;;;;19.80;89.40;;;;;;5051833;28;19931;-49
2022/04/21 05:21:47;;;;;;;;;;;;;;;;;;5051926;28;19959;-47
2022/04/21 05:24:13;;;;;;;;;;;;;;;;;;5051870;28;19909;-48
2022/04/21 05:26:40;;;;;;;;;;;;;;;;;;5055332;28;19951;-48
2022/04/21 05:30:55;;;;;;;;;;;;;;;;;;5055886;28;19936;-49
2022/04/21 05:31:51;;;;;;;;;;;;;;;;;;5055731;28;19923;-49
2022/04/21 05:34:17;;;;;;;;;;;;;;;;;;5055410;28;19913;-48
2022/04/21 05:36:43;;;;;;;;;;;;;;;;;;5055453;28;19990;-47
2022/04/21 05:39:09;;;;;;;;;;;;;;;;;;5055426;28;19909;-50
2022/04/21 05:41:35;;;;;;;;;;;;;;;;;;5055356;28;20398;-49
2022/04/21 05:44:01;;;;;;;;;;;;;;;;;;5055207;28;19916;-48
2022/04/21 05:46:27;;;;;;;;;;;;;;;;;;5055182;28;19996;-50
2022/04/21 05:48:52;;;;;;;;;;;;;;;;;;5055200;28;19917;-49
2022/04/21 05:51:18;;;;;;;;;;;19.60;86.90;;;;;;5054993;28;19916;-49
2022/04/21 05:53:44;;;;;;;;;;;;;;;;;;5055438;28;19978;-50
2022/04/21 05:56:10;;;;;;;;;;;19.60;89.70;;;;;;5055070;28;20252;-48
2022/04/21 05:58:36;;;;;;;;;;;;;;;;;;5055271;28;20012;-49
2022/04/21 06:01:02;;;;;;;;;;;;;;;;;;5054834;28;19909;-49
2022/04/21 06:03:28;;;;;;;;;;;19.60;89.80;;;;;;5054644;28;19921;-48
2022/04/21 06:05:53;;;;;;;;;;;;;;;;;;5054894;28;19920;-50
2022/04/21 06:08:19;;;;;;;;;;;;;;;;;;5054766;28;19916;-49
2022/04/21 06:10:45;;;;;;;;;;;;;;;;;;5054678;28;20352;-48
2022/04/21 06:13:15;;;;;;;;;;;;;;;;;;5054941;28;19916;-48
2022/04/21 06:15:41;;;;;;;;;;;;;;;;;;5055012;28;19909;-49
2022/04/21 06:18:07;;;;;;;;;;;;;;;;;;5054612;28;20046;-51
2022/04/21 06:20:35;;;;;;;;;;;;;;;;;;5054539;28;19909;-48
2022/04/21 06:23:00;;;;;;;;;;;19.90;89.70;;;;;;5054905;28;19952;-47
2022/04/21 06:25:26;;;;;;;;;;;20.00;89.80;;;;;;5054451;28;19909;-50
2022/04/21 06:27:52;;;;;;;;;;;;;;;;;;5054461;28;19908;-50
2022/04/21 06:30:19;;;;;;;;;;;20.00;90.00;;;;;;5054420;28;19909;-48
2022/04/21 06:32:44;;;;;;;;;;;20.00;90.10;;;;;;5054350;28;20034;-50
2022/04/21 06:35:10;;;;;;;;;;;;;;;;;;5054369;28;19950;-49
2022/04/21 06:37:36;;;;;;;;;;;;;;;;;;5053208;28;19940;-49
2022/04/21 06:40:02;;;;;;;;;;;;;;;;;;5054197;28;20015;-50
2022/04/21 06:42:28;;;;;;;;;;;;;;;;;;5054091;28;19909;-50
2022/04/21 06:50:23;;;;;;;;;;;;;;;;;;5054069;28;19963;-50
2022/04/21 06:52:49;;;;;;;;;;;;;;;;;;5054209;28;20374;-48
2022/04/21 06:55:15;;;;;;;;;;;;;;;;;;5053879;28;20294;-48
2022/04/21 06:57:40;;;;;;;;;;;20.30;89.40;;;;;;5053774;28;19908;-50
2022/04/21 07:00:06;;;;;;;;;;;20.30;87.70;;;;;;5052676;28;20291;-48
2022/04/21 07:02:32;;;;;;;;;;;;;;;;;;5053520;28;19928;-47
2022/04/21 07:05:04;;;;;;;;;;;20.30;89.50;;;;;;5053786;28;19916;-49
2022/04/21 07:07:30;;;;;;;;;;;20.20;89.30;;;;;;5053647;28;19909;-49
2022/04/21 07:09:56;;;;;;;;;;;20.30;89.00;;;;;;5053710;28;19975;-48
2022/04/21 07:12:26;;;;;;;;;;;20.40;89.10;;;;;;5053572;28;19917;-49
2022/04/21 07:14:52;;;;;;;;;;;;;;;;;;5053848;28;19995;-52
2022/04/21 07:17:18;;;;;;;;;;;20.30;88.80;;;;;;5053693;28;19994;-50
2022/04/21 07:19:44;;;;;;;;;;;;;;;;;;5053667;28;19916;-48
2022/04/21 07:22:10;;;;;;;;;;;20.40;88.90;;;;;;5053494;28;20317;-49
2022/04/21 07:24:35;;;;;;;;;;;20.40;85.60;;;;;;5053360;28;19920;-47
2022/04/21 07:27:01;;;;;;;;;;;;;;;;;;5053348;28;20363;-52
2022/04/21 07:29:27;;;;;;;;;;;;;;;;;;5053349;28;19912;-50
2022/04/21 07:31:53;;;;;;;;;;;;;;;;;;5053126;28;19924;-49
2022/04/21 07:34:19;;;;;;;;;;;;;;;;;;5053147;28;19916;-50
2022/04/21 07:36:46;;;;;;;;;;;20.50;88.80;;;;;;5053107;28;19943;-51
2022/04/21 07:39:11;;;;;;;;;;;20.60;88.50;;;;;;5053354;28;19997;-49
2022/04/21 07:41:37;;;;;;;;;;;20.20;85.20;;;;;;5051735;28;20023;-50
2022/04/21 07:44:03;;;;;;;;;;;;;;;;;;5053050;28;19916;-49
2022/04/21 07:46:29;;;;;;;;;;;;;;;;;;5053301;28;19909;-49
2022/04/21 07:51:39;;;;;;;;;;;;;;;;;;5052793;28;19924;-50
2022/04/21 07:54:05;;;;;;;;;;;;;;;;;;5052838;28;19908;-49
2022/04/21 07:56:31;;;;;;;;;;;;;;;;;;5052776;28;19909;-48
2022/04/21 07:58:56;;;;;;;;;;;20.60;88.20;;;;;;5052735;28;20375;-49
2022/04/21 08:01:22;;;;;;;;;;;20.80;88.50;;;;;;5052720;28;20239;-48
2022/04/21 08:03:47;;;;;;;;;;;;;;;;;;5052555;28;19928;-50
2022/04/21 08:06:13;;;;;;;;;;;20.90;85.20;;;;;;5052928;28;19909;-50
2022/04/21 08:08:40;;;;;;;;;;;;;;;;;;5052592;28;19994;-50
2022/04/21 08:11:07;;;;;;;;;;;20.80;88.40;;;;;;5052586;28;19916;-50
2022/04/21 08:13:32;;;;;;;;;;;20.80;88.10;;;;;;5052820;28;19978;-49
2022/04/21 08:15:58;;;;;;;;;;;20.90;88.00;;;;;;5052507;28;20399;-48
2022/04/21 08:18:23;;;;;;;;;;;20.80;88.10;;;;;;5053130;28;19940;-49
2022/04/21 08:20:53;;;;;;;;;;;;;;;;;;5052736;28;19916;-51
2022/04/21 08:23:18;;;;;;;;;;;;;;;;;;5052559;28;20288;-49
2022/04/21 08:33:58;;;;;;;;;;;;;;;;;;5052472;28;19962;-50
2022/04/21 08:36:25;;;;;;;;;;;21.00;88.10;;;;;;5052377;28;19909;-49
2022/04/21 08:38:50;;;;;;;;;;;;;;;;;;5052292;28;20500;-50
2022/04/21 08:41:18;;;;;;;;;;;21.10;87.90;;;;;;5052400;28;19909;-48
2022/04/21 08:43:45;;;;;;;;;;;20.90;85.80;;;;;;5052693;28;20279;-48
2022/04/21 08:46:12;;;;;;;;;;;;;;;;;;5052409;28;19916;-48
2022/04/21 08:48:37;;;;;;;;;;;;;;;;;;5052624;28;20283;-48
2022/04/21 08:51:07;;;;;;;;;;;21.20;86.30;;;;;;5052391;28;19924;-49
2022/04/21 08:53:32;;;;;;;;;;;21.30;87.80;;;;;;5052276;28;19995;-50
2022/04/21 08:55:58;;;;;;;;;;;21.30;87.80;;;;;;5052264;28;19947;-48
2022/04/21 08:58:23;;;;;;;;;;;21.30;87.60;;;;;;5052256;28;19909;-48
2022/04/21 09:00:51;;;;;;;;;;;;;;;;;;5054497;28;19967;-51
2022/04/21 09:03:17;;;;;;;;;;;;;;;;;;5056014;28;19931;-49
2022/04/21 09:05:44;;;;;;;;;;;;;;;;;;5056027;28;19909;-49
2022/04/21 09:08:20;;;;;;;;;;;21.50;86.30;;;;;;5056054;28;19909;-50
2022/04/21 09:10:46;;;;;;;;;;;21.50;86.90;;;;;;5056039;28;19913;-50
2022/04/21 09:13:12;;;;;;;;;;;;;;;;;;5055843;28;19939;-49
2022/04/21 09:15:43;;;;;;;;;;;21.70;87.20;;;;;;5055875;28;19909;-49
2022/04/21 09:18:13;;;;;;;;;;;21.60;87.20;;;;;;5056108;28;19916;-52
2022/04/21 09:20:41;;;;;;;;;;;21.60;87.10;;;;;;5056002;28;19992;-48
2022/04/21 09:23:07;;;;;;;;;;;;;;;;;;5055631;28;20325;-51
2022/04/21 09:25:33;;;;;;;;;;;;;;;;;;5055673;28;19908;-50
2022/04/21 09:28:02;;;;;;;;;;;;;;;;;;5055559;28;19955;-50
2022/04/21 09:30:27;;;;;;;;;;;21.60;86.40;;;;;;5055549;28;19919;-49
2022/04/21 09:32:53;;;;;;;;;;;;;;;;;;5055483;28;20391;-52
2022/04/21 09:35:19;;;;;;;;;;;;;;;;;;5055426;28;19908;-50
2022/04/21 09:37:48;;;;;;;;;;;21.60;86.10;;;;;;5055578;28;20260;-50
2022/04/21 09:40:18;;;;;;;;;;;21.90;86.30;;;;;;5055367;28;20295;-50
2022/04/21 09:42:44;;;;;;;;;;;;;;;;;;5055414;28;19959;-49
2022/04/21 09:47:56;;;;;;;;;;;21.80;86.20;;;;;;5055616;28;19919;-50
2022/04/21 09:50:24;;;;;;;;;;;21.90;86.20;;;;;;5055201;28;19916;-49
2022/04/21 09:52:50;;;;;;;;;;;21.90;86.10;;;;;;5055426;28;19923;-50
2022/04/21 09:55:26;;;;;;;;;;;21.90;86.00;;;;;;5055404;28;19909;-48
2022/04/21 09:58:03;;;;;;;;;;;22.00;86.10;;;;;;5055420;28;19954;-50
2022/04/21 10:00:29;;;;;;;;;;;;;;;;;;5055051;28;19912;-48
2022/04/21 10:02:55;;;;;;;;;;;;;;;;;;5054771;28;19921;-47
2022/04/21 10:05:21;;;;;;;;;;;;;;;;;;5054887;28;19916;-48
2022/04/21 10:07:47;;;;;;;;;;;;;;;;;;5054902;28;19920;-50
2022/04/21 10:10:13;;;;;;;;;;;;;;;;;;5054810;28;19909;-50
2022/04/21 10:12:39;;;;;;;;;;;22.10;85.60;;;;;;5054675;28;19917;-50
2022/04/21 10:15:04;;;;;;;;;;;;;;;;;;5054782;28;19932;-49
2022/04/21 10:17:30;;;;;;;;;;;22.30;85.80;;;;;;5054667;28;19962;-49
2022/04/21 10:19:55;;;;;;;;;;;22.20;85.60;;;;;;5054705;28;20003;-48
2022/04/21 10:22:21;;;;;;;;;;;;;;;;;;5054610;28;19916;-50
2022/04/21 10:24:48;;;;;;;;;;;;;;;;;;5054427;28;20405;-49
2022/04/21 10:27:33;;;;;;;;;;;22.20;85.10;;;;;;5054370;28;19931;-49
2022/04/21 10:29:59;;;;;;;;;;;;;;;;;;5054552;28;20117;-50
2022/04/21 10:32:25;;;;;;;;;;;;;;;;;;5054333;28;20399;-49
2022/04/21 10:34:56;;;;;;;;;;;;;;;;;;5054343;28;19919;-50
2022/04/21 10:37:21;;;;;;;;;;;;;;;;;;5054518;28;19913;-50
2022/04/21 10:39:47;;;;;;;;;;;;;;;;;;5054198;28;19920;-49
2022/04/21 10:42:16;;;;;;;;;;;;;;;;;;5054152;28;19955;-49
2022/04/21 10:44:42;;;;;;;;;;;;;;;;;;5054270;28;19912;-50
2022/04/21 10:47:26;;;;;;;;;;;22.40;85.00;;;;;;5054098;28;19916;-51
2022/04/21 10:49:52;;;;;;;;;;;22.30;84.90;;;;;;5054150;28;19940;-48
2022/04/21 10:57:28;;;;;;;;;;;22.40;84.80;;;;;;5061270;28;19915;-49
2022/04/21 11:00:05;;;;;;;;;;;22.40;84.60;;;;;;5053919;28;19995;-49
2022/04/21 11:02:31;;;;;;;;;;;;;;;;;;5053599;28;19920;-52
2022/04/21 11:04:57;;;;;;;;;;;;;;;;;;5053846;28;20015;-53
2022/04/21 11:07:23;;;;;;;;;;;;;;;;;;5053796;28;19909;-51
2022/04/21 11:09:50;;;;;;;;;;;;;;;;;;5053724;28;20286;-51
2022/04/21 11:12:19;;;;;;;;;;;;;;;;;;5053856;28;20329;-49
2022/04/21 11:14:45;;;;;;;;;;;;;;;;;;5053606;28;19991;-49
2022/04/21 11:17:11;;;;;;;;;;;;;;;;;;5053491;28;20429;-49
2022/04/21 11:19:53;;;;;;;;;;;22.50;84.00;;;;;;5053473;28;19908;-50
2022/04/21 11:22:39;;;;;;;;;;;22.50;82.00;;;;;;5053107;28;20264;-49
2022/04/21 11:25:05;;;;;;;;;;;;;;;;;;5053414;28;20275;-53
2022/04/21 11:27:31;;;;;;;;;;;;;;;;;;5053643;28;19916;-49
2022/04/21 11:29:57;;;;;;;;;;;;;;;;;;5053403;28;20387;-50
2022/04/21 11:32:23;;;;;;;;;;;;;;;;;;5053162;28;19916;-50
2022/04/21 11:34:49;;;;;;;;;;;;;;;;;;5053217;28;19915;-51
2022/04/21 11:37:14;;;;;;;;;;;;;;;;;;5053163;28;20162;-50
2022/04/21 11:39:40;;;;;;;;;;;;;;;;;;5053102;28;20434;-49
2022/04/21 11:42:06;;;;;;;;;;;22.70;82.00;;;;;;5053006;28;19987;-50
2022/04/21 11:44:32;;;;;;;;;;;22.70;83.20;;;;;;5053338;28;19952;-49
2022/04/21 11:46:57;;;;;;;;;;;22.90;80.90;;;;;;5053222;28;19919;-49
2022/04/21 11:49:23;;;;;;;;;;;;;;;;;;5053042;28;20030;-48
2022/04/21 11:51:52;;;;;;;;;;;22.70;83.10;;;;;;5052784;28;19917;-49
2022/04/21 11:54:18;;;;;;;;;;;22.70;83.00;;;;;;5053262;28;20344;-50
2022/04/21 11:56:43;;;;;;;;;;;;;;;;;;5052854;28;19909;-51
2022/04/21 11:59:10;;;;;;;;;;;22.60;79.50;;;;;;5052986;28;19909;-50
2022/04/21 12:07:04;;;;;;;;;;;22.70;82.90;;;;;;5052768;28;19962;-49
2022/04/21 12:09:34;;;;;;;;;;;23.00;83.20;;;;;;5052639;28;19909;-49
2022/04/21 12:12:00;;;;;;;;;;;22.50;81.80;;;;;;5052549;28;19917;-49
2022/04/21 12:14:26;;;;;;;;;;;23.00;83.40;;;;;;5052723;28;19912;-48
2022/04/21 12:16:58;;;;;;;;;;;23.10;83.40;;;;;;5052592;28;20370;-48
2022/04/21 12:19:39;;;;;;;;;;;23.20;83.60;;;;;;5052618;28;19909;-49
2022/04/21 12:22:08;;;;;;;;;;;;;;;;;;5052515;28;20382;-49
2022/04/21 12:24:45;;;;;;;;;;;23.20;83.40;;;;;;5052495;28;19909;-52
2022/04/21 12:27:15;;;;;;;;;;;23.30;79.20;;;;;;5052455;28;19909;-50
2022/04/21 12:30:01;;;;;;;;;;;23.40;83.40;;;;;;5052736;28;20339;-50
2022/04/21 12:32:30;;;;;;;;;;;23.40;83.20;;;;;;5051924;28;19943;-51
2022/04/21 12:34:58;;;;;;;;;;;23.50;83.20;;;;;;5053245;28;19955;-51
2022/04/21 12:37:27;;;;;;;;;;;23.50;83.20;;;;;;5056812;28;19920;-49
2022/04/21 12:39:54;;;;;;;;;;;;;;;;;;5056545;28;19909;-48
2022/04/21 12:42:19;;;;;;;;;;;23.50;81.70;;;;;;5056864;28;19909;-49
2022/04/21 12:44:45;;;;;;;;;;;;;;;;;;5056474;28;20287;-48
2022/04/21 12:47:11;;;;;;;;;;;;;;;;;;5056315;28;20371;-49
2022/04/21 12:49:37;;;;;;;;;;;;;;;;;;5056323;28;20018;-49
2022/04/21 12:52:03;;;;;;;;;;;;;;;;;;5056309;28;19939;-49
2022/04/21 12:54:29;;;;;;;;;;;;;;;;;;5056247;28;20271;-48
2022/04/21 12:56:55;;;;;;;;;;;;;;;;;;5056399;28;19909;-49
2022/04/21 12:59:21;;;;;;;;;;;;;;;;;;5056487;28;19924;-51
2022/04/21 13:01:47;;;;;;;;;;;;;;;;;;5056164;28;20004;-50
2022/04/21 13:04:12;;;;;;;;;;;;;;;;;;5055900;28;20020;-50
2022/04/21 13:06:38;;;;;;;;;;;23.70;83.60;;;;;;5056052;28;20283;-50
2022/04/21 13:09:03;;;;;;;;;;;23.80;83.90;;;;;;5055964;28;19959;-49
2022/04/21 13:11:29;;;;;;;;;;;;;;;;;;5055977;28;19921;-53
2022/04/21 13:13:55;;;;;;;;;;;;;;;;;;5055839;28;19913;-49
2022/04/21 13:16:21;;;;;;;;;;;;;;;;;;5056159;28;19999;-52
2022/04/21 13:18:46;;;;;;;;;;;23.80;84.60;;;;;;5056325;28;19913;-50
2022/04/21 13:23:57;;;;;;;;;;;;;;;;;;5055640;28;19919;-51
2022/04/21 13:26:28;;;;;;;;;;;;;;;;;;5055635;28;19908;-50
2022/04/21 13:29:00;;;;;;;;;;;23.80;84.90;;;;;;5055946;28;19909;-49
2022/04/21 13:34:10;;;;;;;;;;;23.70;84.10;;;;;;5062301;28;20378;-50
2022/04/21 13:36:37;;;;;;;;;;;;;;;;;;5055849;28;19909;-49
2022/04/21 13:39:02;;;;;;;;;;;23.70;84.60;;;;;;5055429;28;20007;-49
2022/04/21 13:41:28;;;;;;;;;;;23.70;84.50;;;;;;5055067;28;19955;-49
2022/04/21 13:43:53;;;;;;;;;;;23.60;83.20;;;;;;5055223;28;20368;-48
2022/04/21 13:46:19;;;;;;;;;;;;;;;;;;5053444;28;19952;-49
2022/04/21 13:48:44;;;;;;;;;;;23.40;84.00;;;;;;5055265;28;19928;-49
2022/04/21 13:51:10;;;;;;;;;;;23.70;85.40;;;;;;5055185;28;20367;-49
2022/04/21 13:53:36;;;;;;;;;;;23.70;84.80;;;;;;5053912;28;20326;-49
2022/04/21 13:56:06;;;;;;;;;;;;;;;;;;5055245;28;19909;-48
2022/04/21 13:58:31;;;;;;;;;;;23.60;81.60;;;;;;5055087;28;19908;-49
2022/04/21 14:00:57;;;;;;;;;;;;;;;;;;5055081;28;19913;-47
2022/04/21 14:03:23;;;;;;;;;;;;;;;;;;5054694;28;19967;-48
2022/04/21 14:05:49;;;;;;;;;;;;;;;;;;5054764;28;19909;-49
2022/04/21 14:08:15;;;;;;;;;;;;;;;;;;5054722;28;19948;-48
2022/04/21 14:10:42;;;;;;;;;;;;;;;;;;5055136;28;20015;-48
2022/04/21 14:13:07;;;;;;;;;;;23.50;83.70;;;;;;5054922;28;19927;-48
2022/04/21 14:15:34;;;;;;;;;;;;;;;;;;5054802;28;19908;-48
2022/04/21 14:18:00;;;;;;;;;;;23.40;84.10;;;;;;5055051;28;20270;-48
2022/04/21 14:20:25;;;;;;;;;;;23.50;83.20;;;;;;5054715;28;20000;-48
2022/04/21 14:22:51;;;;;;;;;;;;;;;;;;5054639;28;20406;-48
2022/04/21 14:25:17;;;;;;;;;;;;;;;;;;5054554;28;19920;-47
2022/04/21 14:27:43;;;;;;;;;;;;;;;;;;5054785;28;19909;-48
2022/04/21 14:30:09;;;;;;;;;;;;;;;;;;5054726;28;19916;-49
2022/04/21 14:32:36;;;;;;;;;;;;;;;;;;5054351;28;19916;-49
2022/04/21 14:35:01;;;;;;;;;;;23.20;81.00;;;;;;5054476;28;20011;-48
2022/04/21 14:45:40;;;;;;;;;;;23.00;84.30;;;;;;5054054;28;19967;-49
2022/04/21 14:48:06;;;;;;;;;;;23.00;84.20;;;;;;5054427;28;19909;-49
2022/04/21 14:50:31;;;;;;;;;;;23.00;84.10;;;;;;5054186;28;19909;-51
2022/04/21 14:52:57;;;;;;;;;;;;;;;;;;5054005;28;19924;-50
2022/04/21 14:55:24;;;;;;;;;;;;;;;;;;5054271;28;19916;-51
2022/04/21 14:57:50;;;;;;;;;;;22.90;81.40;;;;;;5053288;28;19943;-50
2022/04/21 15:00:15;;;;;;;;;;;;;;;;;;5052546;28;19909;-49
2022/04/21 15:02:41;;;;;;;;;;;;;;;;;;5052554;28;20422;-51
2022/04/21 15:05:07;;;;;;;;;;;;;;;;;;5053801;28;19913;-50
2022/04/21 15:07:33;;;;;;;;;;;;;;;;;;5054019;28;19916;-50
2022/04/21 15:09:59;;;;;;;;;;;;;;;;;;5053335;28;19909;-48
2022/04/21 15:12:25;;;;;;;;;;;;;;;;;;5053152;28;20333;-49
2022/04/21 15:14:50;;;;;;;;;;;22.80;82.30;;;;;;5053453;28;19909;-49
2022/04/21 15:17:16;;;;;;;;;;;22.80;82.10;;;;;;5053626;28;19935;-49
2022/04/21 15:19:46;;;;;;;;;;;22.60;82.00;;;;;;5053549;28;19908;-50
2022/04/21 15:22:12;;;;;;;;;;;;;;;;;;5053781;28;19916;-48
2022/04/21 15:24:38;;;;;;;;;;;;;;;;;;5053339;28;19912;-49
2022/04/21 15:27:03;;;;;;;;;;;22.60;81.00;;;;;;5053406;28;19908;-51
2022/04/21 15:29:29;;;;;;;;;;;;;;;;;;5053227;28;19915;-51
2022/04/21 15:31:55;;;;;;;;;;;;;;;;;;5053171;28;20295;-51
2022/04/21 15:34:21;;;;;;;;;;;;;;;;;;5053137;28;20364;-50
2022/04/21 15:36:47;;;;;;;;;;;;;;;;;;5053091;28;19913;-53
2022/04/21 15:39:13;;;;;;;;;;;;;;;;;;5053124;28;19909;-55
2022/04/21 15:41:39;;;;;;;;;;;;;;;;;;5053025;28;20383;-52
2022/04/21 15:44:05;;;;;;;;;;;;;;;;;;5053043;28;20042;-53
2022/04/21 15:46:30;;;;;;;;;;;22.60;81.60;;;;;;5052941;28;19962;-49
2022/04/21 15:48:56;;;;;;;;;;;;;;;;;;5052824;28;19909;-50
2022/04/21 15:51:23;;;;;;;;;;;22.60;81.70;;;;;;5052970;28;19959;-48
2022/04/21 15:59:17;;;;;;;;;;;22.60;79.80;;;;;;5053035;28;19966;-49
2022/04/21 16:01:43;;;;;;;;;;;;;;;;;;5052535;28;20330;-48
2022/04/21 16:04:09;;;;;;;;;;;;;;;;;;5052463;28;19920;-48
2022/04/21 16:06:35;;;;;;;;;;;;;;;;;;5052487;28;19954;-48
2022/04/21 16:09:01;;;;;;;;;;;;;;;;;;5052620;28;19916;-47
2022/04/21 16:11:27;;;;;;;;;;;;;;;;;;5052364;28;19924;-49
2022/04/21 16:13:53;;;;;;;;;;;;;;;;;;5052441;28;19909;-47
2022/04/21 16:16:19;;;;;;;;;;;22.50;81.50;;;;;;5052391;28;19915;-49
2022/04/21 16:18:45;;;;;;;;;;;;;;;;;;5052405;28;20311;-50
2022/04/21 16:21:11;;;;;;;;;;;22.30;81.60;;;;;;5052416;28;19909;-49
2022/04/21 16:23:38;;;;;;;;;;;;;;;;;;5052671;28;19912;-51
2022/04/21 16:26:05;;;;;;;;;;;22.60;81.60;;;;;;5052586;28;19909;-51
2022/04/21 16:28:30;;;;;;;;;;;22.50;81.50;;;;;;5052336;28;19909;-51
2022/04/21 16:30:56;;;;;;;;;;;22.40;81.60;;;;;;5052198;28;19916;-52
2022/04/21 16:33:21;;;;;;;;;;;22.50;79.60;;;;;;5052546;28;19909;-50
2022/04/21 16:35:47;;;;;;;;;;;;;;;;;;5052373;28;20351;-48
2022/04/21 16:38:13;;;;;;;;;;;;;;;;;;5052169;28;19916;-49
2022/04/21 16:40:39;;;;;;;;;;;;;;;;;;5052155;28;19909;-48
2022/04/21 16:43:05;;;;;;;;;;;;;;;;;;5052381;28;19988;-49
2022/04/21 16:45:30;;;;;;;;;;;22.50;81.80;;;;;;5052149;28;19915;-48
2022/04/21 16:47:56;;;;;;;;;;;22.50;81.70;;;;;;5052063;28;19999;-51